Time;durP1;ratioP1;P1;durP2;ratioP2;P2;SDS_P1;SDS_P2;PMS_P1;PMS_P2;Temp;Humidity;BMP_temperature;BMP_pressure;BME280_temperature;BME280_humidity;BME280_pressure;Samples;Min_cycle;Max_cycle;Signal;HPM_P1;HPM_P2
2022/04/11 00:02:16;;;;;;;2.53;0.70;;;2.40;99.90;2.20;100963.00;;;;4876604;28;109886;-64
2022/04/11 00:04:42;;;;;;;3.13;1.53;;;2.40;99.90;2.10;100964.00;;;;4878847;28;87730;-64
2022/04/11 00:07:08;;;;;;;1.60;1.13;;;2.40;99.90;2.10;100966.00;;;;4877857;28;88826;-64
2022/04/11 00:09:34;;;;;;;1.80;1.23;;;2.40;99.90;2.10;100959.00;;;;4878281;28;88678;-65
2022/04/11 00:12:00;;;;;;;1.67;0.87;;;2.30;99.90;2.00;100963.00;;;;4878950;28;87744;-64
2022/04/11 00:14:25;;;;;;;0.90;0.90;;;2.80;99.90;2.00;100962.00;;;;4861238;28;87365;-64
2022/04/11 00:16:51;;;;;;;0.70;0.70;;;2.30;99.90;1.90;100948.00;;;;4858130;28;116903;-64
2022/04/11 00:19:17;;;;;;;1.00;1.00;;;2.30;99.90;1.90;100956.00;;;;4859975;28;102340;-64
2022/04/11 00:21:42;;;;;;;2.30;1.33;;;2.20;99.90;1.90;100951.00;;;;4866798;28;111368;-64
2022/04/11 00:24:09;;;;;;;4.73;1.07;;;2.20;99.90;1.80;100953.00;;;;4876366;28;108132;-64
2022/04/11 00:26:35;;;;;;;1.37;1.00;;;2.10;99.90;1.80;100960.00;;;;4877941;28;88751;-64
2022/04/11 00:29:00;;;;;;;0.83;0.83;;;2.10;99.90;1.70;100956.00;;;;4876587;28;117432;-64
2022/04/11 00:31:26;;;;;;;1.13;0.87;;;2.10;99.90;1.70;100947.00;;;;4877106;28;109203;-64
2022/04/11 00:33:52;;;;;;;2.23;1.30;;;2.00;99.90;1.70;100966.00;;;;4877303;28;110070;-65
2022/04/11 00:36:18;;;;;;;2.00;1.60;;;1.90;99.90;1.60;100955.00;;;;4878728;28;88229;-64
2022/04/11 00:38:44;;;;;;;2.87;1.40;;;1.90;99.90;1.50;100959.00;;;;4864402;28;96022;-64
2022/04/11 00:41:09;;;;;;;1.40;1.30;;;1.80;99.90;1.50;100952.00;;;;4859603;28;109895;-64
2022/04/11 00:43:40;;;;;;;2.57;1.50;;;1.80;99.90;1.40;100951.00;;;;4870522;28;87784;-64
2022/04/11 00:46:07;;;;;;;1.20;1.10;;;1.80;99.90;1.40;100948.00;;;;4876704;28;110084;-64
2022/04/11 00:48:35;;;;;;;2.20;1.30;;;1.70;99.90;1.40;100956.00;;;;4874605;28;110091;-64
2022/04/11 00:51:09;;;;;;;1.80;1.63;;;1.70;99.90;1.30;100955.00;;;;4859773;28;87947;-64
2022/04/11 00:53:39;;;;;;;1.20;1.10;;;1.60;99.90;1.30;100956.00;;;;4865762;28;100207;-64
2022/04/11 00:56:09;;;;;;;2.73;1.10;;;1.60;99.90;1.20;100957.00;;;;4854628;28;88203;-64
2022/04/11 00:58:35;;;;;;;4.67;0.93;;;1.60;99.90;1.20;100958.00;;;;4859996;28;88099;-64
2022/04/11 01:01:02;;;;;;;1.70;1.10;;;1.50;99.90;1.20;100965.00;;;;4875582;28;105720;-65
2022/04/11 01:03:28;;;;;;;2.20;1.47;;;1.50;99.90;1.10;100959.00;;;;4874915;28;87058;-64
2022/04/11 01:05:53;;;;;;;1.53;1.43;;;1.40;99.90;1.00;100951.00;;;;4870117;28;117722;-65
2022/04/11 01:08:19;;;;;;;1.83;1.23;;;1.40;99.90;1.00;100963.00;;;;4857209;28;117243;-65
2022/04/11 01:10:46;;;;;;;1.10;1.00;;;1.30;99.90;1.00;100972.00;;;;4859060;28;110281;-65
2022/04/11 01:13:11;;;;;;;2.47;1.63;;;1.30;99.90;0.90;100964.00;;;;4857639;28;102858;-64
2022/04/11 01:15:37;;;;;;;1.57;1.00;;;1.20;99.90;0.80;100974.00;;;;4863280;28;109077;-64
2022/04/11 01:18:04;;;;;;;2.23;1.50;;;1.20;99.90;0.80;100976.00;;;;4857652;28;115594;-65
2022/04/11 01:20:30;;;;;;;3.53;1.40;;;1.20;99.90;0.80;100972.00;;;;4858620;28;87881;-64
2022/04/11 01:22:55;;;;;;;3.67;2.07;;;1.20;99.90;0.70;100974.00;;;;4857522;28;108560;-65
2022/04/11 01:25:21;;;;;;;2.40;1.10;;;1.10;99.90;0.70;100979.00;;;;4857624;28;116565;-65
2022/04/11 01:27:47;;;;;;;5.53;1.80;;;1.00;99.90;0.70;100977.00;;;;4858851;28;88177;-65
2022/04/11 01:30:15;;;;;;;1.90;1.57;;;1.00;99.90;0.70;100980.00;;;;4840498;28;110460;-65
2022/04/11 01:32:41;;;;;;;2.17;1.93;;;1.00;99.90;0.60;100975.00;;;;4858351;28;88024;-65
2022/04/11 01:35:22;;;;;;;7.53;1.90;;;1.00;99.90;0.60;100974.00;;;;4872735;28;118327;-65
2022/04/11 01:37:48;;;;;;;2.23;1.60;;;0.90;99.90;0.60;100967.00;;;;4859417;28;88183;-65
2022/04/11 01:40:14;;;;;;;2.40;1.37;;;0.90;99.90;0.50;100956.00;;;;4877232;28;87637;-65
2022/04/11 01:42:40;;;;;;;1.73;1.43;;;0.90;99.90;0.50;100964.00;;;;4871602;28;88525;-64
2022/04/11 01:45:09;;;;;;;1.40;1.30;;;0.80;99.90;0.40;100967.00;;;;4858079;28;97285;-65
2022/04/11 01:47:34;;;;;;;2.57;1.63;;;0.80;99.90;0.40;100980.00;;;;4858128;28;88805;-65
2022/04/11 01:50:00;;;;;;;3.37;2.53;;;0.80;99.90;0.30;100970.00;;;;4858394;28;110539;-65
2022/04/11 01:52:26;;;;;;;1.90;1.70;;;0.70;99.90;0.30;100964.00;;;;4874096;28;94461;-65
2022/04/11 01:54:52;;;;;;;2.60;2.17;;;0.70;99.90;0.30;100966.00;;;;4875003;28;109153;-64
2022/04/11 01:57:17;;;;;;;8.43;2.50;;;0.60;99.90;0.20;100975.00;;;;4875822;28;118257;-64
2022/04/11 01:59:43;;;;;;;2.50;2.03;;;0.60;99.90;0.20;100975.00;;;;4876397;28;110463;-65
2022/04/11 02:02:08;;;;;;;1.53;1.43;;;0.60;99.90;0.20;100967.00;;;;4874571;28;108646;-64
2022/04/11 02:04:34;;;;;;;2.20;2.00;;;0.50;99.90;0.20;100961.00;;;;4876183;28;115570;-64
2022/04/11 02:07:00;;;;;;;3.87;1.87;;;0.50;99.90;0.10;100973.00;;;;4875893;28;116171;-65
2022/04/11 02:09:26;;;;;;;3.50;2.17;;;0.50;99.90;0.10;100966.00;;;;4877315;28;87796;-65
2022/04/11 02:11:52;;;;;;;2.63;2.40;;;0.50;99.90;0.10;100968.00;;;;4875931;28;108578;-65
2022/04/11 02:14:17;;;;;;;4.93;2.93;;;0.40;99.90;0.10;100967.00;;;;4876487;28;87905;-64
2022/04/11 02:16:43;;;;;;;5.73;2.80;;;0.40;99.90;0.10;100971.00;;;;4876462;28;88609;-65
2022/04/11 02:19:08;;;;;;;2.10;1.90;;;0.40;99.90;0.10;100978.00;;;;4846262;28;110414;-64
2022/04/11 02:21:34;;;;;;;3.10;1.97;;;0.30;99.90;0.00;100970.00;;;;4870803;28;107184;-65
2022/04/11 02:24:00;;;;;;;2.33;1.93;;;0.40;99.90;0.00;100968.00;;;;4857348;28;96140;-64
2022/04/11 02:26:25;;;;;;;2.37;2.17;;;0.30;99.90;0.00;100969.00;;;;4870232;28;119360;-64
2022/04/11 02:28:51;;;;;;;3.60;2.13;;;0.30;99.90;0.00;100965.00;;;;4875309;28;109731;-64
2022/04/11 02:31:17;;;;;;;1.93;1.60;;;0.30;99.90;0.00;100969.00;;;;4876789;28;107822;-64
2022/04/11 02:33:42;;;;;;;3.50;2.13;;;0.30;99.90;-0.10;100975.00;;;;4864684;28;117203;-64
2022/04/11 02:36:08;;;;;;;3.57;2.17;;;0.20;99.90;-0.10;100975.00;;;;4859621;28;118702;-65
2022/04/11 02:38:34;;;;;;;2.00;1.80;;;0.30;99.90;-0.10;100977.00;;;;4860585;28;111964;-64
2022/04/11 02:40:59;;;;;;;3.90;2.13;;;0.20;99.90;-0.10;100976.00;;;;4879300;28;107865;-64
2022/04/11 02:43:25;;;;;;;1.97;1.60;;;0.50;99.90;-0.20;100973.00;;;;4867044;28;119033;-64
2022/04/11 02:45:50;;;;;;;3.93;2.70;;;0.10;99.90;-0.20;100965.00;;;;4861609;28;116893;-65
2022/04/11 02:48:16;;;;;;;4.30;2.83;;;0.70;99.90;-0.20;100968.00;;;;4877346;28;110806;-64
2022/04/11 02:50:42;;;;;;;3.30;1.83;;;0.10;99.90;-0.30;100973.00;;;;4879795;28;109025;-64
2022/04/11 02:53:07;;;;;;;1.77;1.47;;;0.10;99.90;-0.30;100969.00;;;;4878443;28;118157;-64
2022/04/11 02:55:33;;;;;;;1.33;1.23;;;0.10;99.90;-0.40;100972.00;;;;4872910;28;116710;-65
2022/04/11 02:57:59;;;;;;;2.37;2.00;;;0.00;99.90;-0.40;100967.00;;;;4879030;28;109053;-64
2022/04/11 03:00:24;;;;;;;2.77;1.40;;;0.00;99.90;-0.40;100975.00;;;;4878954;28;110002;-65
2022/04/11 03:02:50;;;;;;;1.63;1.53;;;-0.10;99.90;-0.50;100970.00;;;;4876485;28;117984;-64
2022/04/11 03:05:16;;;;;;;5.90;2.40;;;-0.10;99.90;-0.50;100972.00;;;;4879897;28;88603;-64
2022/04/11 03:07:42;;;;;;;1.40;1.30;;;-0.10;99.90;-0.60;100971.00;;;;4878016;28;111009;-64
2022/04/11 03:10:08;;;;;;;1.23;1.13;;;-0.20;99.90;-0.60;100977.00;;;;4868214;28;108846;-65
2022/04/11 03:12:34;;;;;;;3.40;1.37;;;-0.20;99.90;-0.70;100970.00;;;;4859517;28;89026;-63
2022/04/11 03:15:00;;;;;;;1.30;1.20;;;-0.30;99.90;-0.70;100958.00;;;;4872412;28;89045;-63
2022/04/11 03:17:26;;;;;;;1.97;1.77;;;-0.30;99.90;-0.70;100967.00;;;;4878366;28;102879;-64
2022/04/11 03:19:51;;;;;;;4.17;2.53;;;-0.40;99.90;-0.70;100969.00;;;;4877655;28;108983;-64
2022/04/11 03:22:17;;;;;;;5.53;2.07;;;-0.40;99.90;-0.70;100967.00;;;;4877470;28;118390;-63
2022/04/11 03:24:42;;;;;;;2.30;1.63;;;-0.40;99.90;-0.80;100969.00;;;;4878799;28;116767;-64
2022/04/11 03:27:08;;;;;;;3.87;1.73;;;-0.40;99.90;-0.80;100967.00;;;;4877098;28;109923;-64
2022/04/11 03:29:34;;;;;;;1.87;1.50;;;-0.40;99.90;-0.80;100959.00;;;;4878643;28;107983;-64
2022/04/11 03:31:59;;;;;;;2.30;2.10;;;-0.50;99.90;-0.80;100963.00;;;;4865647;28;104509;-64
2022/04/11 03:34:25;;;;;;;2.17;1.80;;;-0.40;99.90;-0.80;100953.00;;;;4859751;28;108836;-64
2022/04/11 03:36:54;;;;;;;2.70;1.87;;;-0.50;99.90;-0.80;100964.00;;;;4859162;28;88724;-63
2022/04/11 03:39:19;;;;;;;3.37;2.20;;;-0.50;99.90;-0.80;100963.00;;;;4860954;28;87588;-64
2022/04/11 03:41:45;;;;;;;3.93;2.13;;;-0.40;99.90;-0.70;100961.00;;;;4870927;28;102893;-63
2022/04/11 03:44:11;;;;;;;4.80;2.83;;;-0.40;99.90;-0.70;100969.00;;;;4878890;28;106999;-64
2022/04/11 03:46:38;;;;;;;3.17;2.87;;;-0.30;99.90;-0.60;100966.00;;;;4877806;28;93756;-64
2022/04/11 03:49:04;;;;;;;4.97;4.47;;;0.20;99.90;-0.60;100956.00;;;;4879657;28;87826;-64
2022/04/11 03:51:29;;;;;;;5.07;3.73;;;-0.30;99.90;-0.60;100964.00;;;;4877982;28;107722;-63
2022/04/11 03:53:55;;;;;;;7.97;4.53;;;-0.30;99.90;-0.50;100964.00;;;;4877992;28;116524;-64
2022/04/11 03:56:21;;;;;;;3.10;2.80;;;-0.20;99.90;-0.50;100964.00;;;;4878041;28;88312;-64
2022/04/11 03:58:47;;;;;;;5.47;3.30;;;-0.10;99.90;-0.40;100969.00;;;;4877276;28;109306;-64
2022/04/11 04:01:12;;;;;;;4.77;4.27;;;-0.10;99.90;-0.40;100962.00;;;;4875972;28;117170;-64
2022/04/11 04:03:40;;;;;;;4.33;3.10;;;-0.10;99.90;-0.30;100966.00;;;;4877908;28;111741;-64
2022/04/11 04:06:06;;;;;;;4.80;3.67;;;0.00;99.90;-0.30;100974.00;;;;4878173;28;87708;-64
2022/04/11 04:08:31;;;;;;;2.57;2.43;;;0.00;99.90;-0.30;100973.00;;;;4877951;28;87664;-64
2022/04/11 04:10:57;;;;;;;6.17;3.47;;;0.00;99.90;-0.30;100973.00;;;;4864687;28;88207;-64
2022/04/11 04:13:23;;;;;;;4.10;2.97;;;0.10;99.90;-0.20;100986.00;;;;4868325;28;117284;-64
2022/04/11 04:15:48;;;;;;;4.20;3.63;;;0.10;99.90;-0.20;100980.00;;;;4878184;28;109401;-64
2022/04/11 04:18:14;;;;;;;5.73;3.40;;;0.10;99.90;-0.20;100978.00;;;;4869843;28;87018;-64
2022/04/11 04:20:40;;;;;;;4.57;3.30;;;0.20;99.90;-0.20;100975.00;;;;4859421;28;87972;-64
2022/04/11 04:23:06;;;;;;;2.97;2.60;;;0.10;99.90;-0.20;100972.00;;;;4868081;28;117112;-64
2022/04/11 04:25:38;;;;;;;8.03;3.83;;;0.10;99.90;-0.20;100974.00;;;;4858824;28;88722;-65
2022/04/11 04:28:05;;;;;;;5.37;3.50;;;0.10;99.90;-0.20;100983.00;;;;4859414;28;108832;-64
2022/04/11 04:30:30;;;;;;;4.10;3.03;;;0.50;99.90;-0.30;100983.00;;;;4858902;28;104376;-64
2022/04/11 04:32:57;;;;;;;5.17;3.50;;;0.70;99.90;-0.30;100982.00;;;;4864284;28;116933;-64
2022/04/11 04:35:23;;;;;;;5.07;3.57;;;0.10;99.90;-0.30;100987.00;;;;4877155;28;88013;-64
2022/04/11 04:37:50;;;;;;;5.00;3.80;;;0.10;99.90;-0.30;100985.00;;;;4865602;28;88150;-64
2022/04/11 04:40:16;;;;;;;6.73;3.83;;;0.00;99.90;-0.40;100981.00;;;;4878302;28;98509;-64
2022/04/11 04:42:42;;;;;;;8.13;4.37;;;0.00;99.90;-0.40;100985.00;;;;4865751;28;115634;-64
2022/04/11 04:45:08;;;;;;;5.97;4.27;;;-0.10;99.90;-0.40;100981.00;;;;4858039;28;111459;-65
2022/04/11 04:47:34;;;;;;;4.77;3.87;;;-0.10;99.90;-0.50;100982.00;;;;4857036;28;87888;-64
2022/04/11 04:49:59;;;;;;;6.33;3.97;;;-0.10;99.90;-0.50;100980.00;;;;4857979;28;119118;-63
2022/04/11 04:52:25;;;;;;;3.63;2.83;;;-0.10;99.90;-0.60;100979.00;;;;4860567;28;116641;-64
2022/04/11 04:54:51;;;;;;;5.17;2.90;;;-0.20;99.90;-0.60;100977.00;;;;4878074;28;104587;-64
2022/04/11 04:57:16;;;;;;;3.33;2.77;;;-0.20;99.90;-0.60;100978.00;;;;4872897;28;87789;-65
2022/04/11 04:59:42;;;;;;;3.10;2.30;;;-0.20;99.90;-0.60;100973.00;;;;4876337;28;118476;-64
2022/04/11 05:02:08;;;;;;;8.17;2.67;;;-0.30;99.90;-0.70;100973.00;;;;4875417;28;118721;-64
2022/04/11 05:04:34;;;;;;;3.17;2.57;;;-0.30;99.90;-0.70;100981.00;;;;4878475;28;87797;-64
2022/04/11 05:06:59;;;;;;;4.83;2.07;;;-0.30;99.90;-0.70;100977.00;;;;4877977;28;86981;-64
2022/04/11 05:09:25;;;;;;;3.83;2.87;;;-0.30;99.90;-0.60;100973.00;;;;4867619;28;111729;-64
2022/04/11 05:11:51;;;;;;;3.57;2.00;;;-0.30;99.90;-0.60;100968.00;;;;4865964;28;117597;-65
2022/04/11 05:14:17;;;;;;;3.17;2.87;;;-0.20;99.90;-0.50;100982.00;;;;4860208;28;88791;-64
2022/04/11 05:16:43;;;;;;;4.10;2.57;;;-0.20;99.90;-0.40;100981.00;;;;4876304;28;87596;-64
2022/04/11 05:19:09;;;;;;;10.47;9.50;;;0.00;99.90;-0.30;100968.00;;;;4863743;28;88622;-64
2022/04/11 05:21:34;;;;;;;9.53;8.37;;;0.00;99.90;-0.10;100981.00;;;;4873804;28;117741;-64
2022/04/11 05:24:00;;;;;;;6.93;5.67;;;0.20;99.90;0.00;100980.00;;;;4868585;28;109421;-63
2022/04/11 05:26:26;;;;;;;8.73;7.67;;;0.30;99.90;0.20;100980.00;;;;4870465;28;93791;-63
2022/04/11 05:28:52;;;;;;;9.73;6.27;;;0.50;99.90;0.30;100977.00;;;;4873003;28;88720;-64
2022/04/11 05:31:18;;;;;;;7.50;5.97;;;0.50;99.90;0.50;100995.00;;;;4872990;28;118383;-64
2022/04/11 05:33:45;;;;;;;7.63;5.47;;;0.80;99.90;0.80;100985.00;;;;4870004;28;88132;-64
2022/04/11 05:36:11;;;;;;;4.83;4.20;;;0.90;99.90;1.00;100996.00;;;;4873185;28;95652;-64
2022/04/11 05:38:37;;;;;;;4.43;3.87;;;1.10;99.90;1.20;100988.00;;;;4872672;28;89674;-64
2022/04/11 05:41:03;;;;;;;6.03;4.53;;;1.30;99.90;1.40;100996.00;;;;4873210;28;105757;-63
2022/04/11 05:43:28;;;;;;;8.07;6.23;;;1.60;99.90;1.60;100989.00;;;;4873011;28;87763;-64
2022/04/11 05:45:54;;;;;;;4.60;3.90;;;1.80;99.90;1.80;100999.00;;;;4873593;28;107828;-63
2022/04/11 05:48:20;;;;;;;6.40;4.07;;;2.00;99.90;2.10;100999.00;;;;4865720;28;118418;-65
2022/04/11 05:50:45;;;;;;;6.27;4.13;;;2.20;99.90;2.30;100995.00;;;;4872911;28;117455;-64
2022/04/11 05:53:11;;;;;;;5.43;3.93;;;2.40;99.90;2.60;101001.00;;;;4865647;28;112039;-65
2022/04/11 05:55:37;;;;;;;9.47;4.30;;;2.70;99.90;2.90;101008.00;;;;4854040;28;108970;-64
2022/04/11 05:58:03;;;;;;;5.07;4.57;;;3.00;99.90;3.20;101013.00;;;;4866562;28;109341;-64
2022/04/11 06:00:28;;;;;;;8.93;3.60;;;3.30;99.90;3.50;101003.00;;;;4873747;28;88520;-64
2022/04/11 06:02:54;;;;;;;4.60;3.07;;;4.10;99.90;3.70;101003.00;;;;4874776;28;112056;-65
2022/04/11 06:05:20;;;;;;;3.93;3.53;;;3.80;99.90;3.90;101007.00;;;;4871509;28;109266;-64
2022/04/11 06:07:46;;;;;;;7.80;4.70;;;4.00;99.90;4.10;101018.00;;;;4871729;28;117816;-64
2022/04/11 06:10:12;;;;;;;5.47;2.63;;;4.20;99.90;4.40;101017.00;;;;4876239;28;115759;-65
2022/04/11 06:12:38;;;;;;;6.77;2.40;;;4.40;99.90;4.60;101019.00;;;;4867875;28;87801;-65
2022/04/11 06:15:05;;;;;;;4.60;2.73;;;4.60;99.90;4.90;101022.00;;;;4884865;28;107726;-64
2022/04/11 06:17:31;;;;;;;5.27;2.00;;;5.00;99.90;5.20;101011.00;;;;4874982;28;88392;-64
2022/04/11 06:19:59;;;;;;;3.07;2.63;;;5.20;99.90;5.40;101024.00;;;;4874121;28;88192;-66
2022/04/11 06:22:26;;;;;;;1.90;1.70;;;5.90;99.90;5.60;101013.00;;;;4872409;28;87930;-64
2022/04/11 06:25:00;;;;;;;2.17;1.73;;;6.20;99.90;5.80;101021.00;;;;4877172;28;87851;-64
2022/04/11 06:27:27;;;;;;;3.20;1.70;;;6.30;99.90;6.00;101020.00;;;;4874176;28;90179;-65
2022/04/11 06:29:56;;;;;;;2.57;1.43;;;6.10;99.90;6.20;101030.00;;;;4874024;28;88750;-64
2022/04/11 06:32:27;;;;;;;1.40;1.30;;;6.30;99.90;6.40;101029.00;;;;4875870;28;87933;-64
2022/04/11 06:34:52;;;;;;;4.10;1.93;;;6.60;99.90;6.50;101026.00;;;;4876851;28;87771;-64
2022/04/11 06:37:18;;;;;;;1.90;1.37;;;6.60;99.90;6.60;101024.00;;;;4875847;28;89314;-64
2022/04/11 06:39:44;;;;;;;4.20;1.67;;;6.70;99.90;6.70;101033.00;;;;4875921;28;117107;-64
2022/04/11 06:42:09;;;;;;;4.70;1.53;;;7.40;99.90;6.90;101036.00;;;;4874881;28;110485;-65
2022/04/11 06:44:37;;;;;;;6.13;1.73;;;7.00;99.90;7.10;101027.00;;;;4876606;28;111018;-64
2022/04/11 06:47:03;;;;;;;2.43;1.50;;;7.20;99.90;7.30;101040.00;;;;4875981;28;88971;-64
2022/04/11 06:49:29;;;;;;;1.30;1.10;;;7.40;99.90;7.50;101036.00;;;;4872121;28;109399;-63
2022/04/11 06:51:55;;;;;;;1.33;1.20;;;7.60;99.90;7.60;101025.00;;;;4876141;28;88929;-63
2022/04/11 06:54:21;;;;;;;2.07;1.47;;;7.70;99.90;7.70;101035.00;;;;4873953;28;88305;-64
2022/04/11 06:56:47;;;;;;;2.27;1.40;;;7.80;99.90;7.80;101031.00;;;;4870480;28;118011;-64
2022/04/11 06:59:15;;;;;;;2.67;1.60;;;7.90;99.90;7.90;101030.00;;;;4870208;28;87823;-63
2022/04/11 07:01:41;;;;;;;2.93;1.10;;;8.00;99.90;8.00;101034.00;;;;4876081;28;87927;-64
2022/04/11 07:04:07;;;;;;;1.40;1.27;;;8.10;99.90;8.20;101041.00;;;;4876393;28;87740;-63
2022/04/11 07:06:32;;;;;;;2.40;1.70;;;8.30;99.90;8.40;101040.00;;;;4874774;28;93333;-64
2022/04/11 07:08:58;;;;;;;2.50;1.33;;;8.50;99.90;8.50;101034.00;;;;4869999;28;117137;-64
2022/04/11 07:11:24;;;;;;;1.07;0.97;;;8.60;99.90;8.50;101046.00;;;;4875134;28;110017;-64
2022/04/11 07:13:49;;;;;;;1.50;1.20;;;8.60;99.90;8.70;101041.00;;;;4876046;28;87786;-63
2022/04/11 07:16:15;;;;;;;0.97;0.70;;;8.80;99.90;8.80;101037.00;;;;4875177;28;106481;-64
2022/04/11 07:18:41;;;;;;;1.67;1.00;;;8.90;99.90;9.00;101044.00;;;;4874543;28;119638;-64
2022/04/11 07:21:06;;;;;;;2.43;1.17;;;9.10;99.90;9.10;101046.00;;;;4875079;28;87661;-64
2022/04/11 07:23:32;;;;;;;3.63;0.93;;;9.20;99.80;9.20;101046.00;;;;4871459;28;108433;-64
2022/04/11 07:25:58;;;;;;;0.87;0.87;;;9.30;99.00;9.30;101045.00;;;;4875285;28;113889;-64
2022/04/11 07:28:23;;;;;;;2.87;1.37;;;9.40;97.70;9.40;101051.00;;;;4872591;28;116831;-64
2022/04/11 07:30:49;;;;;;;5.30;0.93;;;9.50;96.50;9.50;101061.00;;;;4874346;28;111157;-65
2022/04/11 07:33:14;;;;;;;1.30;1.17;;;9.60;95.90;9.60;101051.00;;;;4875261;28;108195;-64
2022/04/11 07:35:40;;;;;;;2.47;0.90;;;9.70;95.90;9.70;101057.00;;;;4875962;28;117510;-63
2022/04/11 07:38:06;;;;;;;3.83;0.90;;;9.80;94.50;9.90;101058.00;;;;4874078;28;116134;-64
2022/04/11 07:40:31;;;;;;;3.97;1.10;;;10.00;95.00;10.10;101056.00;;;;4874739;28;109220;-63
2022/04/11 07:42:57;;;;;;;1.63;1.03;;;10.20;94.40;10.20;101048.00;;;;4874194;28;108652;-63
2022/04/11 07:45:23;;;;;;;2.00;1.10;;;10.30;91.80;10.30;101057.00;;;;4874601;28;116462;-64
2022/04/11 07:47:49;;;;;;;2.93;1.00;;;10.50;90.80;10.50;101056.00;;;;4874043;28;103050;-63
2022/04/11 07:50:15;;;;;;;1.90;1.20;;;10.60;91.90;10.60;101053.00;;;;4875492;28;108336;-64
2022/04/11 07:52:43;;;;;;;1.47;1.30;;;10.70;90.70;10.70;101052.00;;;;4874198;28;88005;-63
2022/04/11 07:55:11;;;;;;;1.50;1.13;;;10.80;90.90;11.00;101051.00;;;;4869267;28;91462;-64
2022/04/11 07:57:37;;;;;;;4.17;1.30;;;11.00;90.50;11.10;101056.00;;;;4875134;28;88165;-65
2022/04/11 08:00:06;;;;;;;2.10;1.07;;;11.20;88.60;11.20;101057.00;;;;4875748;28;87796;-64
2022/04/11 08:02:32;;;;;;;1.10;1.00;;;11.30;82.90;11.20;101057.00;;;;4875294;28;87664;-64
2022/04/11 08:05:02;;;;;;;3.60;1.17;;;11.40;80.30;11.20;101050.00;;;;4874736;28;90318;-64
2022/04/11 08:07:30;;;;;;;2.27;1.20;;;11.40;79.20;11.20;101070.00;;;;4872207;28;88594;-64
2022/04/11 08:09:55;;;;;;;1.33;0.97;;;11.40;73.60;11.20;101069.00;;;;4876483;28;88023;-65
2022/04/11 08:12:21;;;;;;;2.77;0.97;;;11.40;75.80;11.30;101051.00;;;;4874959;28;87932;-64
2022/04/11 08:14:47;;;;;;;1.03;0.80;;;11.50;75.00;11.40;101056.00;;;;4874045;28;116746;-63
2022/04/11 08:17:13;;;;;;;1.33;0.97;;;11.60;72.80;11.30;101062.00;;;;4874099;28;117421;-64
2022/04/11 08:19:38;;;;;;;2.20;1.30;;;11.50;71.40;11.40;101059.00;;;;4869924;28;110358;-63
2022/04/11 08:22:05;;;;;;;1.93;1.00;;;11.60;72.70;11.60;101064.00;;;;4874544;28;108907;-64
2022/04/11 08:24:32;;;;;;;3.03;1.23;;;11.60;74.50;11.80;101062.00;;;;4872067;28;108655;-64
2022/04/11 08:26:58;;;;;;;2.50;1.17;;;11.80;75.40;11.90;101060.00;;;;4874942;28;87837;-63
2022/04/11 08:29:25;;;;;;;1.77;1.00;;;12.00;72.90;11.90;101066.00;;;;4872657;28;101195;-64
2022/04/11 08:31:51;;;;;;;2.70;0.90;;;12.10;70.80;11.90;101054.00;;;;4873119;28;88233;-65
2022/04/11 08:34:17;;;;;;;1.50;0.70;;;12.00;71.70;11.80;101059.00;;;;4856903;28;87978;-64
2022/04/11 08:36:44;;;;;;;3.50;1.20;;;12.10;71.60;11.60;101054.00;;;;4874918;28;117417;-64
2022/04/11 08:39:10;;;;;;;2.93;0.93;;;11.90;68.20;11.40;101054.00;;;;4870712;28;87790;-65
2022/04/11 08:41:36;;;;;;;1.73;0.83;;;11.70;66.30;11.30;101062.00;;;;4857821;28;88468;-64
2022/04/11 08:44:05;;;;;;;0.77;0.77;;;11.50;68.50;11.30;101054.00;;;;4873863;28;109404;-64
2022/04/11 08:46:33;;;;;;;4.17;1.50;;;11.40;69.60;11.30;101052.00;;;;4872050;28;107159;-64
2022/04/11 08:49:06;;;;;;;1.77;1.00;;;11.40;69.80;11.30;101056.00;;;;4874643;28;87741;-63
2022/04/11 08:51:35;;;;;;;1.13;0.50;;;11.40;67.40;11.20;101064.00;;;;4875480;28;88058;-63
2022/04/11 08:54:05;;;;;;;5.00;0.97;;;11.30;68.20;11.40;101044.00;;;;4870251;28;89480;-64
2022/04/11 08:56:32;;;;;;;3.67;1.10;;;11.40;67.30;11.70;101048.00;;;;4874495;28;89770;-65
2022/04/11 08:58:58;;;;;;;0.77;0.67;;;11.60;68.10;12.00;101038.00;;;;4874565;28;87905;-64
2022/04/11 09:01:24;;;;;;;2.23;1.00;;;11.90;67.30;12.10;101048.00;;;;4874784;28;87902;-64
2022/04/11 09:03:50;;;;;;;0.90;0.70;;;12.10;63.10;12.00;101049.00;;;;4872033;28;88213;-64
2022/04/11 09:06:18;;;;;;;1.00;0.63;;;12.10;63.00;12.00;101059.00;;;;4872121;28;118289;-63
2022/04/11 09:08:55;;;;;;;0.63;0.50;;;12.10;63.70;12.00;101053.00;;;;4867155;28;88093;-64
2022/04/11 09:11:35;;;;;;;3.03;1.00;;;12.10;62.10;12.00;101050.00;;;;4875123;28;87168;-64
2022/04/11 09:14:04;;;;;;;2.10;0.90;;;12.10;60.90;12.10;101050.00;;;;4869968;28;89065;-64
2022/04/11 09:16:48;;;;;;;1.30;0.70;;;12.00;60.70;12.30;101049.00;;;;4871617;28;88853;-64
2022/04/11 09:19:23;;;;;;;1.67;0.93;;;12.20;60.80;12.60;101039.00;;;;4872412;28;110823;-63
2022/04/11 09:21:50;;;;;;;0.90;0.63;;;12.40;60.10;12.80;101046.00;;;;4874463;28;88162;-63
2022/04/11 09:24:22;;;;;;;0.83;0.80;;;12.70;59.30;13.10;101040.00;;;;4874637;28;88751;-64
2022/04/11 09:26:51;;;;;;;19.10;12.17;;;12.90;59.50;13.40;101060.00;;;;4873606;28;88651;-64
2022/04/11 09:29:17;;;;;;;2.87;1.80;;;13.20;59.30;13.70;101043.00;;;;4872716;28;87802;-64
2022/04/11 09:31:43;;;;;;;1.07;0.90;;;13.40;58.70;13.80;101056.00;;;;4874033;28;87888;-64
2022/04/11 09:34:25;;;;;;;2.13;0.97;;;13.60;57.80;13.90;101054.00;;;;4874362;28;87726;-64
2022/04/11 09:37:01;;;;;;;0.80;0.80;;;13.70;58.70;14.00;101055.00;;;;4866801;28;88537;-64
2022/04/11 09:39:31;;;;;;;1.00;0.80;;;13.90;58.40;14.40;101049.00;;;;4871047;28;88061;-65
2022/04/11 09:41:57;;;;;;;2.63;0.80;;;14.10;58.50;14.80;101048.00;;;;4870113;28;87747;-64
2022/04/11 09:44:29;;;;;;;0.60;0.47;;;14.40;57.80;14.80;101039.00;;;;4872345;28;90076;-64
2022/04/11 09:47:04;;;;;;;0.80;0.70;;;14.60;54.20;14.60;101040.00;;;;4872221;28;98661;-64
2022/04/11 09:49:31;;;;;;;4.87;0.90;;;14.60;51.70;14.50;101034.00;;;;4872884;28;92216;-63
2022/04/11 09:52:07;;;;;;;1.23;0.63;;;14.40;52.70;14.60;101043.00;;;;4854885;28;87888;-64
2022/04/11 09:54:36;;;;;;;1.07;0.97;;;14.40;53.20;14.70;101034.00;;;;4872661;28;88038;-64
2022/04/11 09:57:03;;;;;;;1.13;0.87;;;14.50;52.40;15.00;101028.00;;;;4872762;28;88710;-63
2022/04/11 09:59:29;;;;;;;1.97;1.33;;;14.60;51.60;15.00;101027.00;;;;4868596;28;87786;-63
2022/04/11 10:01:58;;;;;;;0.43;0.37;;;14.70;49.80;15.00;101019.00;;;;4873749;28;87136;-63
2022/04/11 10:04:25;;;;;;;1.87;0.90;;;14.80;48.90;15.10;101019.00;;;;4873532;28;88997;-64
2022/04/11 10:06:51;;;;;;;2.00;0.53;;;14.80;47.70;15.10;101011.00;;;;4873320;28;88361;-64
2022/04/11 10:09:21;;;;;;;0.77;0.77;;;14.90;47.10;15.30;101020.00;;;;4872391;28;88698;-63
2022/04/11 10:11:47;;;;;;;1.20;0.73;;;15.00;47.30;15.40;101014.00;;;;4872985;28;88045;-64
2022/04/11 10:14:23;;;;;;;2.50;1.02;;;15.10;47.70;15.30;101021.00;;;;4872390;28;117814;-65
2022/04/11 10:16:51;;;;;;;1.60;1.10;;;15.10;45.80;15.40;101024.00;;;;4855656;28;88150;-66
2022/04/11 10:19:23;;;;;;;1.13;1.02;;;15.10;46.60;15.60;101011.00;;;;4873269;28;87986;-66
2022/04/11 10:21:51;;;;;;;2.00;0.90;;;15.30;46.00;15.70;101004.00;;;;4873098;28;87625;-66
2022/04/11 10:24:35;;;;;;;2.53;1.10;;;15.40;45.80;15.80;101015.00;;;;4854687;28;109320;-66
2022/04/11 10:27:23;;;;;;;2.25;1.05;;;15.50;45.60;15.90;101010.00;;;;4855050;28;87104;-65
2022/04/11 10:29:51;;;;;;;1.10;0.90;;;15.60;46.50;15.70;101017.00;;;;4855074;28;88369;-66
2022/04/11 10:32:23;;;;;;;1.23;0.95;;;15.50;46.60;15.60;101022.00;;;;4873026;28;90590;-66
2022/04/11 10:35:01;;;;;;;1.08;0.70;;;15.40;47.60;15.50;101013.00;;;;4854310;28;90174;-66
2022/04/11 10:37:39;;;;;;;1.10;0.75;;;15.30;48.00;15.50;101016.00;;;;4851240;28;90136;-65
2022/04/11 10:40:17;;;;;;;0.45;0.45;;;15.30;48.30;15.50;101009.00;;;;4873450;28;87800;-65
2022/04/11 10:43:10;;;;;;;0.70;0.70;;;15.40;47.50;15.40;101016.00;;;;4869583;28;108590;-65
2022/04/11 10:45:42;;;;;;;0.60;0.60;;;15.30;46.30;15.10;101017.00;;;;4871305;28;87741;-65
2022/04/11 10:48:13;;;;;;;0.68;0.68;;;15.10;44.80;14.90;101005.00;;;;4871012;28;87917;-65
2022/04/11 10:50:41;;;;;;;1.58;0.80;;;14.90;45.80;15.10;101012.00;;;;4873024;28;88462;-67